Time;durP1;ratioP1;P1;durP2;ratioP2;P2;SDS_P1;SDS_P2;PMS_P1;PMS_P2;Temp;Humidity;BMP_temperature;BMP_pressure;BME280_temperature;BME280_humidity;BME280_pressure;Samples;Min_cycle;Max_cycle;Signal;HPM_P1;HPM_P2
2022/05/25 00:00:34;;;;;;;2.87;1.97;;;;;;;21.77;42.90;99073.31;4129117;28;20228;-65
2022/05/25 00:02:36;;;;;;;3.27;1.77;;;;;;;21.76;42.75;99075.19;4121681;28;20222;-67
2022/05/25 00:04:38;;;;;;;2.17;1.93;;;;;;;21.59;42.96;99075.19;4117026;28;20216;-63
2022/05/25 00:06:40;;;;;;;1.73;1.60;;;;;;;20.74;44.86;99088.66;4129460;28;20575;-66
2022/05/25 00:08:41;;;;;;;2.70;1.80;;;;;;;19.87;46.42;99081.47;4131077;28;20241;-65
2022/05/25 00:10:43;;;;;;;3.43;2.00;;;;;;;19.82;47.09;99049.81;4128876;28;20242;-65
2022/05/25 00:12:45;;;;;;;2.47;2.10;;;;;;;20.79;44.88;99064.41;4136786;28;20617;-64
2022/05/25 00:14:48;;;;;;;3.40;2.00;;;;;;;21.51;44.24;99056.66;4139011;28;20461;-65
2022/05/25 00:16:49;;;;;;;2.20;2.00;;;;;;;21.17;45.31;99076.47;4131914;28;20964;-66
2022/05/25 00:21:11;;;;;;;3.33;1.70;;;;;;;21.57;44.71;99077.31;4133517;28;20233;-66
2022/05/25 00:23:13;;;;;;;3.13;2.07;;;;;;;21.97;44.21;99081.69;4136129;28;20234;-64
2022/05/25 00:25:20;;;;;;;3.20;2.10;;;;;;;21.57;45.12;99080.03;4125592;28;20241;-65
2022/05/25 00:27:22;;;;;;;3.73;1.97;;;;;;;21.29;45.25;99102.56;4133673;28;20229;-65
2022/05/25 00:29:23;;;;;;;3.53;1.80;;;;;;;21.35;45.41;99096.19;4132753;28;20292;-65
2022/05/25 00:31:25;;;;;;;3.13;1.93;;;;;;;21.30;45.50;99082.59;4133268;28;20311;-65
2022/05/25 00:33:27;;;;;;;1.90;1.80;;;;;;;21.13;45.86;99088.00;4130223;28;20298;-66
2022/05/25 00:35:31;;;;;;;2.20;2.10;;;;;;;21.55;44.86;99085.69;4117505;28;20242;-65
2022/05/25 00:37:34;;;;;;;3.70;2.30;;;;;;;21.28;45.16;99104.47;4117178;28;20296;-66
2022/05/25 00:39:38;;;;;;;5.17;2.10;;;;;;;21.26;44.99;99097.66;4127149;28;20256;-64
2022/05/25 00:41:40;;;;;;;2.73;1.90;;;;;;;21.24;44.97;99106.03;4142924;28;20775;-64
2022/05/25 00:43:42;;;;;;;2.10;1.90;;;;;;;22.08;43.35;99101.59;4131044;28;20238;-65
2022/05/25 00:45:48;;;;;;;2.23;1.80;;;;;;;21.79;43.81;99117.16;4127603;28;20233;-65
2022/05/25 00:47:51;;;;;;;3.83;2.00;;;;;;;22.22;43.06;99112.84;4139084;28;20233;-65
2022/05/25 00:49:53;;;;;;;2.47;1.83;;;;;;;21.88;43.79;99124.63;4121154;28;20745;-66
2022/05/25 00:52:01;;;;;;;3.20;1.90;;;;;;;19.70;47.19;99124.53;4131475;28;20238;-64
2022/05/25 00:54:08;;;;;;;1.93;1.80;;;;;;;19.78;47.55;99102.59;4134798;28;20624;-64
2022/05/25 00:56:13;;;;;;;3.30;2.00;;;;;;;21.40;45.10;99088.16;4130852;28;20786;-64
2022/05/25 00:58:15;;;;;;;3.97;1.93;;;;;;;21.11;45.08;99096.34;4131064;28;20872;-63
2022/05/25 01:00:20;;;;;;;2.07;1.87;;;;;;;21.27;44.77;99102.81;4137063;28;20300;-65
2022/05/25 01:02:23;;;;;;;2.97;2.10;;;;;;;21.59;44.20;99101.41;4127392;28;20462;-65
2022/05/25 01:04:26;;;;;;;3.40;2.37;;;;;;;21.80;43.87;99119.63;4130602;28;20205;-65
2022/05/25 01:06:49;;;;;;;3.70;2.17;;;;;;;21.94;43.59;99113.88;4127834;28;20449;-64
2022/05/25 01:09:07;;;;;;;1.90;1.80;;;;;;;21.22;44.74;99137.88;4122830;28;20300;-64
2022/05/25 01:11:57;;;;;;;2.03;1.90;;;;;;;20.10;46.38;99140.00;4136752;28;20228;-65
2022/05/25 01:13:59;;;;;;;2.90;1.73;;;;;;;20.02;45.88;99145.75;4127110;28;20229;-65
2022/05/25 01:16:34;;;;;;;1.80;1.70;;;;;;;20.21;45.33;99143.72;4126029;28;20234;-65
2022/05/25 01:18:51;;;;;;;2.00;1.80;;;;;;;20.33;45.13;99141.03;4130003;28;20266;-66
2022/05/25 01:21:03;;;;;;;4.10;2.00;;;;;;;19.65;46.37;99140.59;4125336;28;20679;-66
2022/05/25 01:23:23;;;;;;;2.23;1.70;;;;;;;20.16;45.41;99133.66;4123101;28;20241;-64
2022/05/25 01:25:53;;;;;;;4.37;1.70;;;;;;;20.61;44.69;99141.06;4134817;28;20237;-65
2022/05/25 01:28:00;;;;;;;2.00;1.80;;;;;;;20.28;45.62;99143.63;4136820;28;20608;-66
2022/05/25 01:30:05;;;;;;;2.47;1.73;;;;;;;19.82;46.21;99140.72;4127378;28;20942;-65
2022/05/25 01:32:36;;;;;;;1.60;1.50;;;;;;;20.36;45.24;99137.84;4131649;28;20287;-65
2022/05/25 01:34:37;;;;;;;1.93;1.70;;;;;;;19.83;46.20;99151.28;4119695;28;20237;-63
2022/05/25 01:36:55;;;;;;;1.67;1.57;;;;;;;20.29;45.26;99131.78;4131183;28;20210;-64
2022/05/25 01:39:05;;;;;;;1.70;1.60;;;;;;;20.37;45.07;99151.13;4127427;28;20300;-63
2022/05/25 01:41:48;;;;;;;2.23;1.37;;;;;;;21.02;44.57;99126.72;4134770;28;20233;-63
2022/05/25 01:44:00;;;;;;;1.83;1.43;;;;;;;20.42;45.40;99147.72;4130678;28;20327;-63
2022/05/25 01:46:10;;;;;;;3.13;2.00;;;;;;;21.30;43.81;99137.47;4133194;28;20659;-63
2022/05/25 01:48:15;;;;;;;3.80;1.93;;;;;;;21.19;43.75;99151.88;4130118;28;20244;-66
2022/05/25 01:50:24;;;;;;;1.70;1.53;;;;;;;21.35;44.01;99151.09;4134122;28;20671;-65
2022/05/25 01:52:31;;;;;;;1.50;1.40;;;;;;;20.81;45.05;99162.25;4131354;28;20326;-63
2022/05/25 01:54:38;;;;;;;1.93;1.70;;;;;;;20.62;44.94;99167.03;4138702;28;20206;-64
2022/05/25 01:56:46;;;;;;;3.10;1.70;;;;;;;20.78;45.29;99145.72;4129258;28;20202;-65
2022/05/25 01:58:56;;;;;;;1.90;1.70;;;;;;;20.36;45.18;99154.06;4139493;28;20253;-63
2022/05/25 02:00:59;;;;;;;2.07;1.80;;;;;;;19.80;46.34;99148.22;4130867;28;20878;-64
2022/05/25 02:05:23;;;;;;;1.60;1.50;;;;;;;19.91;45.60;99171.69;4127511;28;20226;-64
2022/05/25 02:07:53;;;;;;;2.43;1.57;;;;;;;19.77;46.22;99154.09;4126050;28;20457;-64
2022/05/25 02:10:01;;;;;;;3.50;1.70;;;;;;;20.29;45.11;99156.88;4129176;28;20235;-62
2022/05/25 02:12:18;;;;;;;2.90;1.83;;;;;;;20.75;44.46;99168.63;4118219;28;20233;-63
2022/05/25 02:14:25;;;;;;;1.80;1.70;;;;;;;20.51;44.60;99167.88;4121847;28;20226;-62
2022/05/25 02:17:08;;;;;;;2.37;2.00;;;;;;;21.22;43.88;99148.69;4122674;28;20319;-64
2022/05/25 02:19:31;;;;;;;3.00;2.00;;;;;;;21.33;43.57;99164.03;4125900;28;20670;-63
2022/05/25 02:21:41;;;;;;;2.90;1.80;;;;;;;20.97;44.39;99182.31;4130111;28;20393;-63
2022/05/25 02:23:58;;;;;;;2.40;1.60;;;;;;;20.76;44.45;99177.56;4129378;28;20246;-64
2022/05/25 02:26:09;;;;;;;3.63;1.90;;;;;;;20.88;44.74;99172.09;4131918;28;20291;-65
2022/05/25 02:28:24;;;;;;;2.77;1.97;;;;;;;21.17;44.15;99170.22;4124884;28;20229;-65
2022/05/25 02:30:29;;;;;;;2.20;1.87;;;;;;;20.78;44.46;99189.75;4123829;28;20229;-64
2022/05/25 02:32:36;;;;;;;2.20;2.00;;;;;;;21.20;43.44;99179.75;4129105;28;20218;-63
2022/05/25 02:34:41;;;;;;;3.90;2.10;;;;;;;20.96;44.28;99177.16;4126264;28;20222;-63
2022/05/25 02:36:45;;;;;;;2.40;2.00;;;;;;;20.81;44.34;99177.66;4126296;28;20237;-64
2022/05/25 02:38:47;;;;;;;1.63;1.53;;;;;;;21.02;44.10;99189.69;4129416;28;20738;-65
2022/05/25 02:40:48;;;;;;;1.90;1.80;;;;;;;20.72;44.45;99201.53;4132661;28;20414;-63
2022/05/25 02:42:50;;;;;;;1.77;1.67;;;;;;;18.95;47.54;99222.91;4130127;28;20241;-65
2022/05/25 02:44:52;;;;;;;2.03;1.70;;;;;;;20.14;45.69;99184.34;4133884;28;20252;-64
2022/05/25 02:46:53;;;;;;;1.93;1.83;;;;;;;20.58;44.62;99184.78;4136498;28;20617;-64
2022/05/25 02:48:55;;;;;;;2.17;1.83;;;;;;;20.60;44.55;99195.31;4132325;28;20245;-64
2022/05/25 02:50:57;;;;;;;1.70;1.60;;;;;;;20.66;44.64;99194.38;4139292;28;20236;-64
2022/05/25 02:52:59;;;;;;;2.70;2.10;;;;;;;20.67;44.41;99197.88;4127386;28;20237;-64
2022/05/25 02:55:01;;;;;;;3.33;2.63;;;;;;;21.07;44.18;99187.06;4131882;28;20470;-63
2022/05/25 02:57:03;;;;;;;2.00;1.90;;;;;;;18.96;47.60;99216.44;4127688;28;20225;-63
2022/05/25 02:59:05;;;;;;;2.00;1.90;;;;;;;20.28;45.16;99186.81;4127721;28;21049;-63
2022/05/25 03:01:07;;;;;;;2.07;1.80;;;;;;;19.63;46.81;99175.88;4132060;28;20953;-64
2022/05/25 03:03:12;;;;;;;2.97;1.83;;;;;;;19.73;46.15;99183.41;4127044;28;20233;-65
2022/05/25 03:05:14;;;;;;;3.10;1.60;;;;;;;19.79;45.69;99195.97;4131195;28;20233;-65
2022/05/25 03:07:16;;;;;;;2.07;1.80;;;;;;;20.41;44.52;99184.69;4132745;28;20241;-64
2022/05/25 03:09:17;;;;;;;2.20;2.10;;;;;;;20.53;44.36;99194.63;4133301;28;20246;-63
2022/05/25 03:11:19;;;;;;;2.87;1.83;;;;;;;19.94;45.60;99208.97;4129419;28;20229;-65
2022/05/25 03:13:21;;;;;;;1.80;1.70;;;;;;;19.59;45.73;99220.56;4128079;28;20229;-64
2022/05/25 03:15:22;;;;;;;3.57;1.80;;;;;;;19.23;46.29;99233.06;4129078;28;20710;-64
2022/05/25 03:17:24;;;;;;;2.33;1.90;;;;;;;19.85;44.99;99227.38;4131128;28;20307;-65
2022/05/25 03:19:26;;;;;;;2.30;1.70;;;;;;;19.56;45.44;99237.19;4124731;28;20722;-66
2022/05/25 03:21:27;;;;;;;2.20;2.00;;;;;;;19.02;46.45;99231.72;4112921;28;20246;-64
2022/05/25 03:23:29;;;;;;;1.80;1.70;;;;;;;18.74;47.36;99243.00;4110603;28;20328;-64
2022/05/25 03:25:31;;;;;;;2.10;1.90;;;;;;;18.68;47.55;99225.88;4122045;28;20234;-65
2022/05/25 03:27:32;;;;;;;1.80;1.70;;;;;;;19.71;45.76;99201.72;4128402;28;20633;-64
2022/05/25 03:29:34;;;;;;;2.17;1.77;;;;;;;19.30;46.51;99201.47;4132331;28;20536;-64
2022/05/25 03:31:36;;;;;;;2.17;1.90;;;;;;;19.74;45.77;99219.28;4135783;28;20232;-65
2022/05/25 03:33:38;;;;;;;2.43;2.23;;;;;;;18.49;47.95;99251.16;4125614;28;20283;-65
2022/05/25 03:35:40;;;;;;;3.37;1.80;;;;;;;19.65;46.28;99199.94;4136771;28;20288;-65
2022/05/25 03:37:42;;;;;;;2.50;2.30;;;;;;;19.71;46.30;99217.88;4130800;28;20229;-67
2022/05/25 03:39:43;;;;;;;2.03;1.70;;;;;;;20.36;44.94;99210.75;4128591;28;20232;-67
2022/05/25 03:41:47;;;;;;;2.20;1.90;;;;;;;20.22;45.37;99218.25;4127752;28;20234;-70
2022/05/25 03:43:49;;;;;;;1.97;1.77;;;;;;;19.49;46.25;99253.44;4128544;28;20241;-70
2022/05/25 03:45:51;;;;;;;3.30;1.90;;;;;;;19.49;46.79;99234.56;4125682;28;20959;-68
2022/05/25 03:47:53;;;;;;;2.93;1.90;;;;;;;20.03;45.42;99228.34;4132593;28;20233;-68
2022/05/25 03:49:55;;;;;;;1.93;1.80;;;;;;;19.90;45.53;99234.78;4128211;28;20264;-66
2022/05/25 03:51:56;;;;;;;3.90;1.93;;;;;;;18.62;48.44;99253.69;4126790;28;20225;-66
2022/05/25 03:53:58;;;;;;;1.80;1.67;;;;;;;19.49;46.47;99215.69;4131691;28;20283;-63
2022/05/25 03:56:00;;;;;;;2.43;1.80;;;;;;;19.92;45.59;99229.97;4132239;28;20232;-68
2022/05/25 03:58:02;;;;;;;2.10;1.90;;;;;;;19.56;46.25;99244.47;4131796;28;20225;-68
2022/05/25 04:00:06;;;;;;;3.70;1.93;;;;;;;19.37;46.91;99266.06;4132382;28;20292;-68
2022/05/25 04:02:07;;;;;;;3.50;2.27;;;;;;;19.63;46.19;99255.97;4128806;28;20984;-68
2022/05/25 04:04:09;;;;;;;2.40;2.10;;;;;;;19.59;46.26;99268.25;4130324;28;20893;-67
2022/05/25 04:06:11;;;;;;;2.70;1.80;;;;;;;18.57;48.52;99265.13;4132818;28;20233;-68
2022/05/25 04:08:13;;;;;;;4.90;2.43;;;;;;;19.21;46.87;99254.03;4132628;28;20416;-68
2022/05/25 04:10:19;;;;;;;3.50;2.20;;;;;;;19.01;47.67;99248.91;4133002;28;20695;-68
2022/05/25 04:12:22;;;;;;;3.03;1.90;;;;;;;19.31;46.94;99240.03;4128954;28;20257;-67
2022/05/25 04:14:24;;;;;;;3.93;2.40;;;;;;;19.69;46.49;99247.78;4129173;28;20201;-68
2022/05/25 04:16:26;;;;;;;2.50;2.10;;;;;;;18.97;47.95;99276.56;4136174;28;20201;-68
2022/05/25 04:18:28;;;;;;;2.70;2.10;;;;;;;19.41;46.72;99267.25;4137317;28;20301;-68
2022/05/25 04:20:32;;;;;;;2.23;2.00;;;;;;;19.21;46.83;99290.97;4129512;28;21032;-68
2022/05/25 04:22:35;;;;;;;2.80;2.10;;;;;;;19.74;45.87;99267.84;4135581;28;20225;-68
2022/05/25 04:24:37;;;;;;;4.23;2.00;;;;;;;20.02;45.36;99273.38;4130187;28;20793;-68
2022/05/25 04:26:45;;;;;;;3.00;2.00;;;;;;;18.54;48.16;99295.22;4135991;28;20803;-69
2022/05/25 04:28:47;;;;;;;6.00;2.43;;;;;;;18.55;48.10;99296.03;4126180;28;20883;-68
2022/05/25 04:30:48;;;;;;;3.00;2.20;;;;;;;20.03;45.60;99258.03;4131665;28;20295;-68
2022/05/25 04:32:51;;;;;;;4.70;2.10;;;;;;;19.95;45.41;99279.97;4131274;28;20224;-68
2022/05/25 04:34:53;;;;;;;2.77;2.30;;;;;;;20.03;45.00;99279.63;4129807;28;20811;-68
2022/05/25 04:37:48;;;;;;;4.63;2.40;;;;;;;19.94;45.32;99300.72;4131881;28;20664;-69
2022/05/25 04:39:17;;;;;;;6.90;2.87;;;;;;;20.09;45.28;99294.06;4129755;28;20230;-68
2022/05/25 04:41:19;;;;;;;3.10;2.30;;;;;;;20.07;44.91;99297.81;4133494;28;20269;-68
2022/05/25 04:43:23;;;;;;;4.07;2.20;;;;;;;19.83;45.68;99315.84;4126905;28;20233;-68
2022/05/25 04:45:26;;;;;;;3.10;2.33;;;;;;;19.42;46.48;99322.81;4135863;28;20897;-68
2022/05/25 04:47:31;;;;;;;3.10;2.20;;;;;;;19.25;46.81;99328.03;4132601;28;20237;-68
2022/05/25 04:49:33;;;;;;;3.67;2.63;;;;;;;19.53;46.35;99302.34;4134395;28;20245;-68
2022/05/25 04:51:35;;;;;;;2.37;2.17;;;;;;;19.82;45.91;99299.88;4134745;28;20233;-68
2022/05/25 04:53:37;;;;;;;3.07;2.10;;;;;;;19.47;46.11;99331.06;4126686;28;20742;-67
2022/05/25 04:57:59;;;;;;;3.67;2.50;;;;;;;19.64;46.52;99325.03;4127544;28;20225;-68
2022/05/25 05:00:05;;;;;;;2.47;2.07;;;;;;;19.83;45.92;99325.81;4126347;28;20397;-68
2022/05/25 05:02:06;;;;;;;6.60;2.80;;;;;;;19.43;46.86;99327.16;4126043;28;20285;-68
2022/05/25 05:04:08;;;;;;;3.93;2.40;;;;;;;19.63;46.35;99337.69;4130731;28;20233;-68
2022/05/25 05:06:10;;;;;;;4.60;2.87;;;;;;;19.91;46.40;99314.69;4132453;28;20742;-68
2022/05/25 05:08:13;;;;;;;6.33;2.83;;;;;;;19.73;46.45;99337.16;4131961;28;20806;-68
2022/05/25 05:10:15;;;;;;;8.37;3.20;;;;;;;19.96;46.24;99333.72;4124079;28;20281;-68
2022/05/25 05:12:16;;;;;;;7.07;2.40;;;;;;;19.45;47.34;99338.56;4133813;28;20226;-68
2022/05/25 05:14:18;;;;;;;3.13;2.60;;;;;;;19.44;47.33;99353.06;4125631;28;20714;-68
2022/05/25 05:16:20;;;;;;;2.90;2.70;;;;;;;19.61;47.16;99333.59;4128877;28;20280;-67
2022/05/25 05:18:23;;;;;;;3.03;2.30;;;;;;;19.80;46.90;99337.88;4127783;28;20229;-68
2022/05/25 05:20:26;;;;;;;2.97;2.33;;;;;;;19.86;46.39;99341.53;4126368;28;20230;-69
2022/05/25 05:22:27;;;;;;;3.73;2.30;;;;;;;19.02;47.55;99363.72;4138641;28;20209;-68
2022/05/25 05:24:32;;;;;;;2.70;2.10;;;;;;;19.86;46.47;99325.34;4131115;28;20887;-68
2022/05/25 05:26:33;;;;;;;2.90;2.20;;;;;;;19.79;46.65;99340.78;4138161;28;20243;-68
2022/05/25 05:28:38;;;;;;;4.27;2.07;;;;;;;19.60;47.14;99340.84;4130547;28;20221;-67
2022/05/25 05:30:46;;;;;;;4.83;2.30;;;;;;;19.07;47.98;99358.47;4126670;28;20232;-67
2022/05/25 05:32:53;;;;;;;2.57;2.17;;;;;;;19.56;47.36;99344.25;4134011;28;20264;-68
2022/05/25 05:34:55;;;;;;;3.20;2.10;;;;;;;19.23;47.75;99362.44;4129907;28;20291;-68
2022/05/25 05:37:02;;;;;;;3.10;2.40;;;;;;;19.75;46.80;99351.22;4124122;28;20234;-68
2022/05/25 05:39:06;;;;;;;4.63;2.30;;;;;;;19.10;47.51;99400.31;4134383;28;20867;-67
2022/05/25 05:41:11;;;;;;;3.03;2.57;;;;;;;19.80;46.90;99343.25;4136560;28;20233;-68
2022/05/25 05:43:12;;;;;;;3.30;3.00;;;;;;;19.06;48.19;99373.00;4133087;28;20374;-68
2022/05/25 05:45:27;;;;;;;3.97;2.57;;;;;;;19.30;47.66;99371.28;4131900;28;20237;-68
2022/05/25 05:47:35;;;;;;;3.20;2.10;;;;;;;18.65;49.58;99362.84;4127434;28;20280;-68
2022/05/25 05:49:38;;;;;;;2.90;2.60;;;;;;;20.11;46.65;99345.91;4129324;28;20276;-68
2022/05/25 05:51:41;;;;;;;4.10;2.40;;;;;;;20.23;46.92;99358.41;4130584;28;20230;-67
2022/05/25 05:53:46;;;;;;;2.47;2.23;;;;;;;19.21;48.52;99369.94;4131314;28;20947;-68
2022/05/25 05:55:48;;;;;;;6.37;3.13;;;;;;;20.01;46.98;99350.03;4121354;28;20934;-67
2022/05/25 05:57:50;;;;;;;4.03;2.93;;;;;;;20.43;46.10;99359.97;4125648;28;20513;-68
2022/05/25 05:59:52;;;;;;;3.13;2.53;;;;;;;19.95;46.95;99386.00;4123805;28;20238;-68
2022/05/25 06:01:53;;;;;;;3.40;2.70;;;;;;;20.17;46.48;99372.81;4131212;28;20314;-68
2022/05/25 06:03:55;;;;;;;4.53;2.60;;;;;;;20.17;47.03;99375.50;4127956;28;20265;-68
2022/05/25 06:05:57;;;;;;;4.30;2.67;;;;;;;20.03;47.30;99387.56;4131320;28;20233;-68
2022/05/25 06:08:21;;;;;;;3.10;2.53;;;;;;;19.93;46.88;99406.19;4127446;28;20237;-67
2022/05/25 06:10:23;;;;;;;3.90;2.23;;;;;;;20.33;46.82;99382.16;4111784;28;20321;-68
2022/05/25 06:12:24;;;;;;;5.10;3.33;;;;;;;20.27;47.04;99393.06;4128064;28;20210;-67
2022/05/25 06:14:26;;;;;;;2.67;2.47;;;;;;;20.38;47.35;99397.63;4127394;28;20201;-67
2022/05/25 06:21:09;;;;;;;3.17;2.30;;;;;;;19.88;47.43;99418.47;4131704;28;20229;-68
2022/05/25 06:23:11;;;;;;;2.97;2.33;;;;;;;19.84;48.23;99417.31;4124189;28;20241;-68
2022/05/25 06:25:13;;;;;;;2.50;2.30;;;;;;;19.73;48.08;99431.56;4123761;28;21038;-67
2022/05/25 06:27:22;;;;;;;4.20;2.53;;;;;;;20.16;48.01;99398.19;4127397;28;20294;-68
2022/05/25 06:29:24;;;;;;;2.60;2.40;;;;;;;20.38;47.65;99414.69;4128397;28;20880;-68
2022/05/25 06:31:26;;;;;;;2.77;2.57;;;;;;;20.30;47.35;99408.78;4124026;28;20725;-68
2022/05/25 06:33:28;;;;;;;2.33;2.20;;;;;;;20.27;47.42;99417.34;4123113;28;20222;-68
2022/05/25 06:35:36;;;;;;;4.43;2.40;;;;;;;20.48;48.06;99422.19;4126971;28;20225;-68
2022/05/25 06:37:38;;;;;;;4.20;2.90;;;;;;;19.54;48.64;99454.16;4126755;28;20392;-68
2022/05/25 06:39:39;;;;;;;4.80;2.30;;;;;;;20.68;46.31;99421.88;4120638;28;20229;-68
2022/05/25 06:41:41;;;;;;;6.50;2.57;;;;;;;20.48;46.66;99446.50;4125603;28;20301;-68
2022/05/25 06:43:43;;;;;;;2.30;2.10;;;;;;;20.49;46.54;99428.44;4124328;28;20234;-67
2022/05/25 06:45:45;;;;;;;3.37;2.73;;;;;;;20.24;47.28;99437.50;4122027;28;20237;-68
2022/05/25 06:47:47;;;;;;;2.60;2.23;;;;;;;18.42;49.75;99481.88;4123746;28;20723;-68
2022/05/25 06:49:52;;;;;;;2.80;2.30;;;;;;;19.77;48.95;99411.16;4124495;28;20244;-68
2022/05/25 06:51:54;;;;;;;2.93;2.50;;;;;;;20.24;47.39;99422.09;4123695;28;20240;-68
2022/05/25 06:53:56;;;;;;;3.50;2.27;;;;;;;20.77;46.73;99408.84;4122761;28;20230;-68
2022/05/25 06:55:58;;;;;;;3.43;2.70;;;;;;;20.69;47.07;99433.50;4119130;28;20793;-68
2022/05/25 06:58:00;;;;;;;4.93;2.67;;;;;;;20.19;47.13;99457.06;4119165;28;20705;-68
2022/05/25 07:00:04;;;;;;;3.10;2.57;;;;;;;20.17;47.00;99469.16;4129625;28;20237;-68
2022/05/25 07:02:05;;;;;;;5.23;3.00;;;;;;;20.51;47.82;99448.72;4127739;28;20225;-68
2022/05/25 07:04:08;;;;;;;3.37;2.63;;;;;;;20.72;48.01;99436.56;4125752;28;20236;-67
2022/05/25 07:06:12;;;;;;;4.60;3.07;;;;;;;20.41;48.13;99453.88;4133082;28;20830;-68
2022/05/25 07:08:14;;;;;;;3.70;2.50;;;;;;;20.58;47.27;99446.78;4124525;28;20233;-68
2022/05/25 07:10:16;;;;;;;3.97;2.40;;;;;;;21.05;46.56;99453.28;4126878;28;20868;-68
2022/05/25 07:12:17;;;;;;;3.80;2.57;;;;;;;21.71;44.57;99452.03;4129442;28;20230;-68
2022/05/25 07:14:19;;;;;;;3.10;2.57;;;;;;;21.01;46.23;99489.97;4127987;28;20911;-68
2022/05/25 07:16:22;;;;;;;6.53;2.50;;;;;;;21.39;45.91;99467.00;4128433;28;20968;-68
2022/05/25 07:18:25;;;;;;;5.80;2.30;;;;;;;20.93;46.53;99489.19;4126616;28;20256;-68
2022/05/25 07:20:26;;;;;;;3.00;2.30;;;;;;;21.18;45.41;99493.59;4133434;28;20287;-68
2022/05/25 07:22:28;;;;;;;3.47;2.83;;;;;;;21.44;45.94;99484.16;4128279;28;20276;-68
2022/05/25 07:24:30;;;;;;;3.67;2.43;;;;;;;21.81;45.20;99469.53;4124228;28;20242;-68
2022/05/25 07:26:35;;;;;;;4.43;2.70;;;;;;;21.70;45.94;99485.56;4126212;28;20213;-68
2022/05/25 07:28:38;;;;;;;4.80;2.50;;;;;;;21.75;45.84;99482.13;4120982;28;20225;-68
2022/05/25 07:30:39;;;;;;;5.33;2.20;;;;;;;21.65;45.30;99492.75;4124501;28;20224;-68
2022/05/25 07:32:42;;;;;;;5.93;2.67;;;;;;;21.68;45.06;99479.56;4120089;28;20217;-68
2022/05/25 07:34:54;;;;;;;4.40;2.60;;;;;;;21.20;46.57;99491.47;4110152;28;20246;-68
2022/05/25 07:37:15;;;;;;;2.80;2.57;;;;;;;21.43;46.12;99479.00;4115191;28;20245;-69
2022/05/25 07:39:19;;;;;;;4.43;2.37;;;;;;;21.67;44.52;99496.84;4120112;28;20715;-68
2022/05/25 07:41:21;;;;;;;4.00;2.27;;;;;;;21.11;46.38;99498.31;4115824;28;20300;-70
2022/05/25 07:43:25;;;;;;;2.70;2.40;;;;;;;21.59;45.67;99478.25;4113094;28;20966;-69
2022/05/25 07:45:28;;;;;;;4.13;2.60;;;;;;;22.31;44.15;99468.06;4117420;28;20233;-69
2022/05/25 07:47:31;;;;;;;4.50;2.40;;;;;;;21.58;44.03;99498.28;4118490;28;20233;-69
2022/05/25 07:49:33;;;;;;;3.20;2.40;;;;;;;22.11;43.71;99507.19;4118977;28;20234;-69
2022/05/25 07:51:35;;;;;;;2.80;2.53;;;;;;;21.96;43.68;99496.06;4118810;28;20727;-69
2022/05/25 07:55:57;;;;;;;8.00;2.87;;;;;;;21.72;44.01;99518.59;4109447;28;21052;-68
2022/05/25 07:57:58;;;;;;;5.40;2.77;;;;;;;21.45;45.37;99523.69;4116858;28;20288;-66
2022/05/25 08:00:00;;;;;;;4.23;2.70;;;;;;;21.18;46.32;99504.41;4113537;28;20237;-68
2022/05/25 08:07:06;;;;;;;4.83;2.63;;;;;;;21.76;43.32;99502.72;4132659;28;20597;-65
2022/05/25 08:09:08;;;;;;;3.77;2.53;;;;;;;21.85;44.21;99509.41;4120663;28;20265;-64
2022/05/25 08:11:13;;;;;;;4.23;2.70;;;;;;;22.18;44.23;99494.31;4124874;28;20233;-65
2022/05/25 08:13:17;;;;;;;3.00;2.50;;;;;;;22.21;44.77;99483.03;4125574;28;20245;-67
2022/05/25 08:15:19;;;;;;;2.57;2.37;;;;;;;22.39;43.00;99482.03;4131000;28;20336;-64
2022/05/25 08:17:20;;;;;;;6.40;2.60;;;;;;;22.54;41.95;99486.06;4128729;28;20229;-64
2022/05/25 08:19:23;;;;;;;3.80;2.10;;;;;;;22.90;42.66;99473.09;4124721;28;20898;-67
2022/05/25 08:21:34;;;;;;;3.93;2.13;;;;;;;22.63;41.56;99495.44;4135649;28;20275;-66
2022/05/25 08:23:47;;;;;;;6.03;2.60;;;;;;;22.62;41.90;99515.47;4130074;28;20238;-66
2022/05/25 08:25:49;;;;;;;2.60;2.40;;;;;;;22.82;41.07;99512.28;4135752;28;20300;-67
2022/05/25 08:27:51;;;;;;;4.60;2.57;;;;;;;22.48;43.04;99528.50;4128301;28;20229;-67
2022/05/25 08:29:52;;;;;;;3.23;2.30;;;;;;;22.09;42.79;99512.84;4131777;28;20241;-67
2022/05/25 08:31:58;;;;;;;2.90;2.30;;;;;;;22.09;42.01;99517.44;4132133;28;20585;-66
2022/05/25 08:33:59;;;;;;;3.13;2.10;;;;;;;22.57;41.08;99507.25;4131298;28;20260;-66
2022/05/25 08:36:01;;;;;;;3.37;2.30;;;;;;;23.34;40.76;99503.06;4132950;28;20230;-66
2022/05/25 08:38:03;;;;;;;4.40;2.47;;;;;;;22.27;42.30;99524.53;4129316;28;20257;-64
2022/05/25 08:40:06;;;;;;;3.03;2.10;;;;;;;22.19;42.47;99525.78;4133477;28;20295;-67
2022/05/25 08:42:14;;;;;;;5.47;2.80;;;;;;;22.38;41.64;99518.28;4125480;28;20257;-67
2022/05/25 08:44:16;;;;;;;4.23;2.17;;;;;;;22.86;43.04;99524.28;4135794;28;20309;-67
2022/05/25 08:46:21;;;;;;;3.73;3.10;;;;;;;22.91;42.26;99505.38;4127382;28;20325;-67
2022/05/25 08:48:23;;;;;;;4.93;2.47;;;;;;;22.05;42.10;99511.69;4132111;28;20222;-67
2022/05/25 08:50:25;;;;;;;3.40;2.13;;;;;;;22.72;42.25;99493.94;4130582;28;20237;-65
2022/05/25 08:52:34;;;;;;;3.87;2.07;;;;;;;22.31;40.97;99512.22;4131663;28;20213;-65
2022/05/25 08:54:36;;;;;;;4.13;1.70;;;;;;;22.43;41.26;99521.09;4129375;28;20271;-67
2022/05/25 08:57:03;;;;;;;1.70;1.60;;;;;;;22.01;41.82;99504.28;4131682;28;20197;-66
2022/05/25 08:59:12;;;;;;;2.37;1.60;;;;;;;22.90;40.45;99498.31;4126921;28;20949;-66
2022/05/25 09:01:25;;;;;;;2.23;1.93;;;;;;;22.56;40.54;99500.19;4134147;28;20251;-66
2022/05/25 09:03:42;;;;;;;3.87;1.67;;;;;;;21.73;41.43;99484.25;4132707;28;20236;-67
2022/05/25 09:05:51;;;;;;;6.30;1.70;;;;;;;21.15;41.79;99491.34;4128385;28;20887;-67
2022/05/25 09:08:13;;;;;;;2.13;1.77;;;;;;;21.59;41.13;99488.25;4127203;28;20817;-67
2022/05/25 09:10:17;;;;;;;2.30;1.57;;;;;;;22.40;40.77;99469.28;4130842;28;20868;-68
2022/05/25 09:12:33;;;;;;;2.67;1.80;;;;;;;22.45;40.26;99507.31;4128315;28;21012;-68
2022/05/25 09:14:46;;;;;;;1.80;1.30;;;;;;;22.14;39.35;99524.88;4135200;28;20418;-68
2022/05/25 09:16:52;;;;;;;4.10;1.40;;;;;;;22.49;39.36;99513.91;4132845;28;20224;-69
2022/05/25 09:19:11;;;;;;;2.13;1.53;;;;;;;22.60;39.38;99510.28;4122972;28;20312;-66
2022/05/25 09:21:16;;;;;;;2.53;1.30;;;;;;;22.29;37.50;99536.00;4125297;28;20229;-69
2022/05/25 09:23:19;;;;;;;2.77;1.40;;;;;;;22.65;38.08;99513.06;4125474;28;20221;-70
2022/05/25 09:25:21;;;;;;;1.93;1.37;;;;;;;22.14;37.33;99531.09;4139995;28;20285;-69
2022/05/25 09:27:45;;;;;;;1.73;0.93;;;;;;;23.22;36.10;99511.31;4133574;28;20900;-69
2022/05/25 09:29:48;;;;;;;4.47;1.20;;;;;;;22.54;37.65;99532.97;4124134;28;20895;-69
2022/05/25 09:32:19;;;;;;;4.73;1.83;;;;;;;23.00;38.49;99514.78;4130194;28;20221;-69
2022/05/25 09:34:42;;;;;;;1.73;1.47;;;;;;;22.59;38.99;99545.75;4127486;28;20713;-66
2022/05/25 09:36:51;;;;;;;1.20;1.10;;;;;;;22.97;39.06;99528.81;4127728;28;20284;-66
2022/05/25 09:39:05;;;;;;;2.27;1.30;;;;;;;22.88;38.63;99524.84;4129588;28;20241;-66
2022/05/25 09:41:11;;;;;;;2.73;1.50;;;;;;;22.99;38.48;99534.00;4133875;28;20249;-63
2022/05/25 09:43:21;;;;;;;2.77;1.53;;;;;;;23.05;38.18;99533.00;4128643;28;20679;-63
2022/05/25 09:45:36;;;;;;;3.77;1.40;;;;;;;22.66;38.92;99530.19;4134290;28;20694;-67
2022/05/25 09:47:44;;;;;;;3.00;1.30;;;;;;;22.81;38.23;99530.44;4132606;28;20229;-62
2022/05/25 09:49:48;;;;;;;3.70;1.53;;;;;;;22.66;38.28;99532.88;4124187;28;20369;-62
2022/05/25 09:51:51;;;;;;;3.27;1.50;;;;;;;22.60;36.99;99541.97;4118402;28;20334;-65
2022/05/25 09:53:59;;;;;;;2.33;1.27;;;;;;;23.00;38.13;99555.44;4124356;28;20224;-66
2022/05/25 09:56:09;;;;;;;2.67;1.60;;;;;;;23.46;37.06;99528.19;4129801;28;20237;-65
2022/05/25 09:58:20;;;;;;;1.57;1.30;;;;;;;24.07;37.38;99527.34;4134151;28;20755;-64
2022/05/25 10:00:40;;;;;;;3.80;1.20;;;;;;;23.83;37.43;99540.38;4124109;28;20229;-66
2022/05/25 10:03:10;;;;;;;1.20;1.10;;;;;;;23.23;36.70;99544.66;4138400;28;20232;-64
2022/05/25 10:05:17;;;;;;;1.43;1.33;;;;;;;23.67;36.12;99536.63;4130721;28;20230;-62
2022/05/25 10:07:32;;;;;;;2.35;1.23;;;;;;;23.91;35.41;99527.19;4128529;28;20887;-63
2022/05/25 10:09:43;;;;;;;3.13;1.40;;;;;;;23.02;37.56;99544.34;4119976;28;20241;-63
2022/05/25 10:12:11;;;;;;;2.10;0.98;;;;;;;23.04;36.74;99536.78;4127212;28;20980;-66